メインページ
METAR-TAF:

METAR-TAF

空港 :

Massena, ニューヨーク, アメリカ合衆国

緯度: 44-56-09N, 経度: 074-50-44W, 海抜: 66m

現時点の気象観測

当レポートは12分前の13:53(UTC)に作成
西/北西の風 9kt
気温 1°C
湿度 80%
気圧 1000 hPa
視程: 14.5km
高度1600ftの曇り

METAR: KMSS 151353Z AUTO 30009KT 9SM OVC016 01/M02 A2952 RMK AO2 SLP001 T00061022

時間: 09:05 (14:05 UTC)

予報

当レポートは2時間32分前の11:33(UTC)に作成
予報は15日の 12時(UTC)から 16日の 12時(UTC)まで有効
西の風 20kt、最大31ktの突風を伴う
視程: 10km
高度2000ftの曇り
近辺でにわか雨
15日の 1500時(UTC)から
西の風 15kt、最大25ktの突風を伴う
視程: 10km
高度2800ftの曇り
近辺でにわか雨
15日の 2000時(UTC)から
西の風 12kt、最大24ktの突風を伴う
視程: 10km
高度3500ftの千切れ雲あり
16日の 0100時(UTC)から
西の風 10kt
視程: 10km
高度25000ftの雲はほとんどない

TAF: KMSS 151133Z 1512/1612 26020G31KT P6SM VCSH OVC020 FM151500 26015G25KT P6SM VCSH OVC028 FM152000 27012G24KT P6SM BKN035 FM160100 26010KT P6SM FEW250

4,000以上の空港の気象観測と天気予報(METAR報とTAF報)

利用可能な観測所は地図上に黄色い丸と赤い丸で示す。

丸の上にカーソルを重ねると観測所名を参照できる。

次にクリックすると気象観測と天気予報を参照できる。

マップの切り替え:黒色「×」印の緑ボタンをクリックして拡大、「-」印の緑ボタンをクリックして縮小、緑色の三角印をクリックして隣りの地図に切り替え


METAR-TAF: